sensor_id;sensor_type;location;lat;lon;timestamp;P1;durP1;ratioP1;P2;durP2;ratioP2
75285;SDS011;63879;46.064;14.532;2022-12-29T07:01:37;20.08;;;10.82;;
75285;SDS011;63879;46.064;14.532;2022-12-29T07:04:03;20.50;;;12.57;;
75285;SDS011;63879;46.064;14.532;2022-12-29T07:06:28;19.30;;;10.55;;
75285;SDS011;63879;46.064;14.532;2022-12-29T07:08:54;19.57;;;10.50;;
75285;SDS011;63879;46.064;14.532;2022-12-29T07:11:20;18.25;;;10.63;;
75285;SDS011;63879;46.064;14.532;2022-12-29T07:13:46;18.67;;;10.45;;
75285;SDS011;63879;46.064;14.532;2022-12-29T07:16:11;16.77;;;10.13;;
75285;SDS011;63879;46.064;14.532;2022-12-29T07:18:36;19.35;;;11.18;;
75285;SDS011;63879;46.064;14.532;2022-12-29T07:21:02;21.07;;;10.03;;
75285;SDS011;63879;46.064;14.532;2022-12-29T07:23:28;17.02;;;10.50;;
75285;SDS011;63879;46.064;14.532;2022-12-29T07:26:03;19.33;;;11.07;;
75285;SDS011;63879;46.064;14.532;2022-12-29T07:28:30;21.92;;;10.68;;
75285;SDS011;63879;46.064;14.532;2022-12-29T07:30:57;19.70;;;10.70;;
75285;SDS011;63879;46.064;14.532;2022-12-29T07:33:23;18.70;;;10.77;;
75285;SDS011;63879;46.064;14.532;2022-12-29T07:35:48;19.90;;;11.35;;
75285;SDS011;63879;46.064;14.532;2022-12-29T07:38:14;22.80;;;14.00;;
75285;SDS011;63879;46.064;14.532;2022-12-29T07:40:39;18.85;;;10.80;;
75285;SDS011;63879;46.064;14.532;2022-12-29T07:43:05;21.35;;;11.63;;
75285;SDS011;63879;46.064;14.532;2022-12-29T07:45:31;18.88;;;10.95;;
75285;SDS011;63879;46.064;14.532;2022-12-29T07:47:56;15.77;;;8.67;;
75285;SDS011;63879;46.064;14.532;2022-12-29T07:50:21;12.03;;;7.27;;
75285;SDS011;63879;46.064;14.532;2022-12-29T07:52:47;13.97;;;9.27;;
75285;SDS011;63879;46.064;14.532;2022-12-29T07:55:13;13.13;;;7.18;;
75285;SDS011;63879;46.064;14.532;2022-12-29T07:57:41;15.02;;;7.85;;
75285;SDS011;63879;46.064;14.532;2022-12-29T08:00:07;13.07;;;7.53;;
75285;SDS011;63879;46.064;14.532;2022-12-29T08:02:34;11.88;;;6.63;;
75285;SDS011;63879;46.064;14.532;2022-12-29T08:04:59;14.50;;;6.80;;
75285;SDS011;63879;46.064;14.532;2022-12-29T08:07:25;15.33;;;7.70;;
75285;SDS011;63879;46.064;14.532;2022-12-29T08:09:50;15.30;;;8.87;;
75285;SDS011;63879;46.064;14.532;2022-12-29T08:12:15;15.60;;;8.43;;
75285;SDS011;63879;46.064;14.532;2022-12-29T08:14:41;15.37;;;7.77;;
75285;SDS011;63879;46.064;14.532;2022-12-29T08:17:06;14.32;;;7.25;;
75285;SDS011;63879;46.064;14.532;2022-12-29T08:19:31;13.70;;;7.60;;
75285;SDS011;63879;46.064;14.532;2022-12-29T08:21:57;14.30;;;7.63;;
75285;SDS011;63879;46.064;14.532;2022-12-29T08:24:22;17.77;;;9.00;;
75285;SDS011;63879;46.064;14.532;2022-12-29T08:26:48;21.60;;;8.70;;
75285;SDS011;63879;46.064;14.532;2022-12-29T08:29:13;109.73;;;24.73;;
75285;SDS011;63879;46.064;14.532;2022-12-29T08:31:38;23.90;;;10.55;;
75285;SDS011;63879;46.064;14.532;2022-12-29T08:34:04;16.50;;;8.67;;
75285;SDS011;63879;46.064;14.532;2022-12-29T08:36:29;10.10;;;8.40;;
75285;SDS011;63879;46.064;14.532;2022-12-29T08:38:58;13.63;;;7.78;;
75285;SDS011;63879;46.064;14.532;2022-12-29T08:41:23;13.10;;;8.27;;
75285;SDS011;63879;46.064;14.532;2022-12-29T08:43:49;14.70;;;8.27;;
75285;SDS011;63879;46.064;14.532;2022-12-29T08:46:15;18.20;;;8.07;;
75285;SDS011;63879;46.064;14.532;2022-12-29T08:48:40;15.38;;;7.97;;
75285;SDS011;63879;46.064;14.532;2022-12-29T08:51:06;14.50;;;9.30;;
75285;SDS011;63879;46.064;14.532;2022-12-29T08:53:32;19.33;;;13.10;;
75285;SDS011;63879;46.064;14.532;2022-12-29T08:55:58;16.58;;;9.57;;
75285;SDS011;63879;46.064;14.532;2022-12-29T08:58:24;21.30;;;10.05;;
75285;SDS011;63879;46.064;14.532;2022-12-29T09:00:54;16.80;;;9.20;;
75285;SDS011;63879;46.064;14.532;2022-12-29T09:03:20;15.65;;;9.43;;
75285;SDS011;63879;46.064;14.532;2022-12-29T09:05:49;12.98;;;7.63;;
75285;SDS011;63879;46.064;14.532;2022-12-29T09:08:15;13.52;;;7.00;;
75285;SDS011;63879;46.064;14.532;2022-12-29T09:10:41;13.45;;;6.88;;
75285;SDS011;63879;46.064;14.532;2022-12-29T09:13:07;12.77;;;6.50;;
75285;SDS011;63879;46.064;14.532;2022-12-29T09:15:32;12.37;;;7.47;;
75285;SDS011;63879;46.064;14.532;2022-12-29T09:17:57;12.23;;;5.90;;
75285;SDS011;63879;46.064;14.532;2022-12-29T09:20:23;11.57;;;5.43;;
75285;SDS011;63879;46.064;14.532;2022-12-29T09:22:48;12.93;;;7.50;;
75285;SDS011;63879;46.064;14.532;2022-12-29T09:25:14;10.10;;;5.50;;
75285;SDS011;63879;46.064;14.532;2022-12-29T09:27:39;12.93;;;7.00;;
75285;SDS011;63879;46.064;14.532;2022-12-29T09:30:06;13.10;;;6.30;;
75285;SDS011;63879;46.064;14.532;2022-12-29T09:32:33;10.15;;;5.57;;
75285;SDS011;63879;46.064;14.532;2022-12-29T09:34:59;12.93;;;5.85;;
75285;SDS011;63879;46.064;14.532;2022-12-29T09:37:24;11.27;;;5.80;;
75285;SDS011;63879;46.064;14.532;2022-12-29T09:39:49;13.63;;;6.78;;
75285;SDS011;63879;46.064;14.532;2022-12-29T09:42:23;12.33;;;5.57;;
75285;SDS011;63879;46.064;14.532;2022-12-29T09:47:35;11.38;;;5.60;;
75285;SDS011;63879;46.064;14.532;2022-12-29T09:50:03;9.25;;;5.68;;
75285;SDS011;63879;46.064;14.532;2022-12-29T09:52:37;9.55;;;4.88;;
75285;SDS011;63879;46.064;14.532;2022-12-29T09:57:43;10.35;;;5.85;;
75285;SDS011;63879;46.064;14.532;2022-12-29T10:00:28;9.90;;;5.20;;
75285;SDS011;63879;46.064;14.532;2022-12-29T10:03:05;14.10;;;8.80;;
75285;SDS011;63879;46.064;14.532;2022-12-29T10:05:49;9.70;;;5.20;;
75285;SDS011;63879;46.064;14.532;2022-12-29T10:08:42;9.90;;;6.55;;
75285;SDS011;63879;46.064;14.532;2022-12-29T10:16:18;10.48;;;5.07;;
75285;SDS011;63879;46.064;14.532;2022-12-29T10:18:54;12.43;;;5.20;;
75285;SDS011;63879;46.064;14.532;2022-12-29T10:24:07;14.85;;;7.75;;
75285;SDS011;63879;46.064;14.532;2022-12-29T10:26:38;19.98;;;9.35;;
75285;SDS011;63879;46.064;14.532;2022-12-29T10:29:08;22.73;;;12.85;;
75285;SDS011;63879;46.064;14.532;2022-12-29T10:31:44;23.38;;;11.65;;
75285;SDS011;63879;46.064;14.532;2022-12-29T10:36:53;21.85;;;10.90;;
75285;SDS011;63879;46.064;14.532;2022-12-29T10:44:36;10.95;;;5.70;;
75285;SDS011;63879;46.064;14.532;2022-12-29T10:47:02;10.98;;;5.97;;
75285;SDS011;63879;46.064;14.532;2022-12-29T10:49:30;12.85;;;6.72;;
75285;SDS011;63879;46.064;14.532;2022-12-29T10:51:58;12.75;;;5.97;;
75285;SDS011;63879;46.064;14.532;2022-12-29T10:57:11;15.88;;;7.15;;
75285;SDS011;63879;46.064;14.532;2022-12-29T10:59:42;13.75;;;7.13;;
75285;SDS011;63879;46.064;14.532;2022-12-29T11:07:07;12.65;;;6.30;;
75285;SDS011;63879;46.064;14.532;2022-12-29T11:09:35;12.82;;;6.25;;
75285;SDS011;63879;46.064;14.532;2022-12-29T11:15:11;11.88;;;6.70;;
75285;SDS011;63879;46.064;14.532;2022-12-29T11:22:59;12.18;;;7.05;;
75285;SDS011;63879;46.064;14.532;2022-12-29T11:25:24;8.77;;;5.38;;
75285;SDS011;63879;46.064;14.532;2022-12-29T11:30:22;12.43;;;6.40;;
75285;SDS011;63879;46.064;14.532;2022-12-29T11:32:52;10.88;;;6.13;;
75285;SDS011;63879;46.064;14.532;2022-12-29T11:35:28;12.68;;;6.80;;
75285;SDS011;63879;46.064;14.532;2022-12-29T11:38:04;12.88;;;7.72;;
75285;SDS011;63879;46.064;14.532;2022-12-29T11:40:29;14.48;;;6.80;;
75285;SDS011;63879;46.064;14.532;2022-12-29T11:42:57;13.73;;;7.38;;
75285;SDS011;63879;46.064;14.532;2022-12-29T11:45:24;13.30;;;7.20;;
75285;SDS011;63879;46.064;14.532;2022-12-29T11:47:55;10.80;;;6.43;;
75285;SDS011;63879;46.064;14.532;2022-12-29T11:50:24;12.88;;;7.13;;
75285;SDS011;63879;46.064;14.532;2022-12-29T11:52:58;12.75;;;7.72;;
75285;SDS011;63879;46.064;14.532;2022-12-29T11:55:24;13.55;;;7.05;;
75285;SDS011;63879;46.064;14.532;2022-12-29T11:57:52;14.25;;;7.68;;
75285;SDS011;63879;46.064;14.532;2022-12-29T12:00:19;14.70;;;7.57;;
75285;SDS011;63879;46.064;14.532;2022-12-29T12:02:50;12.70;;;7.65;;
75285;SDS011;63879;46.064;14.532;2022-12-29T12:05:20;13.15;;;7.50;;
75285;SDS011;63879;46.064;14.532;2022-12-29T12:11:13;15.07;;;7.93;;
75285;SDS011;63879;46.064;14.532;2022-12-29T12:16:17;17.60;;;8.98;;
75285;SDS011;63879;46.064;14.532;2022-12-29T12:21:29;17.02;;;8.98;;
75285;SDS011;63879;46.064;14.532;2022-12-29T12:29:52;14.35;;;7.93;;
75285;SDS011;63879;46.064;14.532;2022-12-29T12:32:46;15.27;;;9.23;;
75285;SDS011;63879;46.064;14.532;2022-12-29T12:35:14;13.48;;;7.65;;
75285;SDS011;63879;46.064;14.532;2022-12-29T12:51:30;13.63;;;7.30;;
75285;SDS011;63879;46.064;14.532;2022-12-29T12:54:05;12.82;;;7.13;;
75285;SDS011;63879;46.064;14.532;2022-12-29T13:05:02;14.70;;;8.07;;
75285;SDS011;63879;46.064;14.532;2022-12-29T13:07:36;14.38;;;7.20;;
75285;SDS011;63879;46.064;14.532;2022-12-29T13:18:46;15.68;;;7.68;;
75285;SDS011;63879;46.064;14.532;2022-12-29T13:24:20;15.23;;;8.23;;
75285;SDS011;63879;46.064;14.532;2022-12-29T13:30:00;20.40;;;8.55;;
75285;SDS011;63879;46.064;14.532;2022-12-29T13:37:51;12.70;;;6.45;;
75285;SDS011;63879;46.064;14.532;2022-12-29T13:40:19;10.38;;;6.97;;
75285;SDS011;63879;46.064;14.532;2022-12-29T13:42:47;20.13;;;13.48;;
75285;SDS011;63879;46.064;14.532;2022-12-29T13:45:14;18.55;;;10.75;;
75285;SDS011;63879;46.064;14.532;2022-12-29T13:47:44;20.73;;;11.10;;
75285;SDS011;63879;46.064;14.532;2022-12-29T13:50:21;17.40;;;10.15;;
75285;SDS011;63879;46.064;14.532;2022-12-29T13:55:34;16.27;;;8.13;;
75285;SDS011;63879;46.064;14.532;2022-12-29T14:00:57;14.70;;;7.93;;
75285;SDS011;63879;46.064;14.532;2022-12-29T14:03:45;21.55;;;9.50;;
75285;SDS011;63879;46.064;14.532;2022-12-29T14:08:51;19.27;;;8.93;;
75285;SDS011;63879;46.064;14.532;2022-12-29T14:13:50;13.20;;;7.57;;
75285;SDS011;63879;46.064;14.532;2022-12-29T14:16:25;18.02;;;8.10;;
75285;SDS011;63879;46.064;14.532;2022-12-29T14:18:55;13.32;;;6.63;;
75285;SDS011;63879;46.064;14.532;2022-12-29T14:21:22;17.05;;;7.70;;
75285;SDS011;63879;46.064;14.532;2022-12-29T14:23:56;15.43;;;9.07;;
75285;SDS011;63879;46.064;14.532;2022-12-29T14:26:45;16.42;;;7.22;;
75285;SDS011;63879;46.064;14.532;2022-12-29T14:31:49;14.50;;;7.55;;
75285;SDS011;63879;46.064;14.532;2022-12-29T14:34:15;15.45;;;6.78;;
75285;SDS011;63879;46.064;14.532;2022-12-29T14:36:59;13.00;;;6.13;;
75285;SDS011;63879;46.064;14.532;2022-12-29T14:39:39;13.38;;;6.00;;
75285;SDS011;63879;46.064;14.532;2022-12-29T14:44:49;13.35;;;6.55;;
75285;SDS011;63879;46.064;14.532;2022-12-29T14:47:20;13.77;;;6.45;;
75285;SDS011;63879;46.064;14.532;2022-12-29T14:49:48;14.38;;;7.03;;
75285;SDS011;63879;46.064;14.532;2022-12-29T14:52:18;16.43;;;7.70;;
75285;SDS011;63879;46.064;14.532;2022-12-29T14:54:49;12.75;;;6.45;;
75285;SDS011;63879;46.064;14.532;2022-12-29T14:57:19;14.27;;;7.00;;
75285;SDS011;63879;46.064;14.532;2022-12-29T14:59:45;17.20;;;7.43;;
75285;SDS011;63879;46.064;14.532;2022-12-29T15:02:19;14.13;;;6.00;;
75285;SDS011;63879;46.064;14.532;2022-12-29T15:04:46;12.00;;;6.13;;
75285;SDS011;63879;46.064;14.532;2022-12-29T15:07:12;15.15;;;6.15;;
75285;SDS011;63879;46.064;14.532;2022-12-29T15:14:58;11.25;;;6.03;;
75285;SDS011;63879;46.064;14.532;2022-12-29T15:17:25;11.43;;;4.50;;
75285;SDS011;63879;46.064;14.532;2022-12-29T15:19:53;10.55;;;5.13;;
75285;SDS011;63879;46.064;14.532;2022-12-29T15:22:19;11.20;;;5.18;;
75285;SDS011;63879;46.064;14.532;2022-12-29T15:24:44;12.15;;;4.70;;
75285;SDS011;63879;46.064;14.532;2022-12-29T15:27:12;10.10;;;5.10;;
75285;SDS011;63879;46.064;14.532;2022-12-29T15:29:40;10.60;;;4.68;;
75285;SDS011;63879;46.064;14.532;2022-12-29T15:32:18;13.07;;;5.72;;
75285;SDS011;63879;46.064;14.532;2022-12-29T15:34:46;11.00;;;5.00;;
75285;SDS011;63879;46.064;14.532;2022-12-29T15:37:20;11.93;;;4.90;;
75285;SDS011;63879;46.064;14.532;2022-12-29T15:39:47;13.85;;;5.20;;
75285;SDS011;63879;46.064;14.532;2022-12-29T15:47:36;10.10;;;5.43;;
75285;SDS011;63879;46.064;14.532;2022-12-29T15:55:44;9.52;;;4.93;;
75285;SDS011;63879;46.064;14.532;2022-12-29T15:58:30;10.60;;;5.45;;
75285;SDS011;63879;46.064;14.532;2022-12-29T16:00:57;9.52;;;5.55;;
75285;SDS011;63879;46.064;14.532;2022-12-29T16:03:27;10.90;;;5.25;;
75285;SDS011;63879;46.064;14.532;2022-12-29T16:05:57;15.38;;;6.50;;
75285;SDS011;63879;46.064;14.532;2022-12-29T16:08:34;12.50;;;6.45;;
75285;SDS011;63879;46.064;14.532;2022-12-29T16:13:53;20.42;;;10.48;;
75285;SDS011;63879;46.064;14.532;2022-12-29T16:16:21;19.30;;;9.30;;
75285;SDS011;63879;46.064;14.532;2022-12-29T16:18:49;17.48;;;8.82;;
75285;SDS011;63879;46.064;14.532;2022-12-29T16:21:19;15.60;;;7.65;;
75285;SDS011;63879;46.064;14.532;2022-12-29T16:27:09;14.98;;;7.50;;
75285;SDS011;63879;46.064;14.532;2022-12-29T16:29:38;14.35;;;9.23;;
75285;SDS011;63879;46.064;14.532;2022-12-29T16:32:18;16.52;;;7.10;;
75285;SDS011;63879;46.064;14.532;2022-12-29T16:34:49;12.80;;;6.90;;
75285;SDS011;63879;46.064;14.532;2022-12-29T16:37:31;14.88;;;7.10;;
75285;SDS011;63879;46.064;14.532;2022-12-29T16:42:56;15.95;;;7.72;;
75285;SDS011;63879;46.064;14.532;2022-12-29T16:48:30;13.85;;;6.60;;
75285;SDS011;63879;46.064;14.532;2022-12-29T16:51:05;14.90;;;7.32;;
75285;SDS011;63879;46.064;14.532;2022-12-29T16:56:59;14.23;;;7.38;;
75285;SDS011;63879;46.064;14.532;2022-12-29T16:59:43;15.82;;;8.57;;
75285;SDS011;63879;46.064;14.532;2022-12-29T17:02:15;13.98;;;7.00;;
75285;SDS011;63879;46.064;14.532;2022-12-29T17:04:41;16.92;;;7.78;;
75285;SDS011;63879;46.064;14.532;2022-12-29T17:07:25;15.23;;;7.60;;
75285;SDS011;63879;46.064;14.532;2022-12-29T17:09:52;21.85;;;9.20;;
75285;SDS011;63879;46.064;14.532;2022-12-29T17:12:23;20.42;;;9.75;;
75285;SDS011;63879;46.064;14.532;2022-12-29T17:17:43;18.58;;;9.07;;
75285;SDS011;63879;46.064;14.532;2022-12-29T17:20:17;19.05;;;9.27;;
75285;SDS011;63879;46.064;14.532;2022-12-29T17:22:45;20.42;;;9.18;;
75285;SDS011;63879;46.064;14.532;2022-12-29T17:25:11;18.15;;;7.53;;
75285;SDS011;63879;46.064;14.532;2022-12-29T17:27:40;16.92;;;8.02;;
75285;SDS011;63879;46.064;14.532;2022-12-29T17:30:17;17.67;;;8.82;;
75285;SDS011;63879;46.064;14.532;2022-12-29T17:32:55;18.77;;;8.40;;
75285;SDS011;63879;46.064;14.532;2022-12-29T17:35:22;14.57;;;7.97;;
75285;SDS011;63879;46.064;14.532;2022-12-29T17:37:49;15.55;;;8.30;;
75285;SDS011;63879;46.064;14.532;2022-12-29T17:40:16;16.85;;;8.63;;
75285;SDS011;63879;46.064;14.532;2022-12-29T17:42:59;13.32;;;8.15;;
75285;SDS011;63879;46.064;14.532;2022-12-29T17:45:26;13.90;;;7.88;;
75285;SDS011;63879;46.064;14.532;2022-12-29T17:47:56;13.32;;;8.10;;
75285;SDS011;63879;46.064;14.532;2022-12-29T17:50:24;15.88;;;8.13;;
75285;SDS011;63879;46.064;14.532;2022-12-29T17:55:54;17.52;;;8.48;;
75285;SDS011;63879;46.064;14.532;2022-12-29T17:58:21;17.65;;;9.45;;
75285;SDS011;63879;46.064;14.532;2022-12-29T18:00:51;16.52;;;9.10;;
75285;SDS011;63879;46.064;14.532;2022-12-29T18:03:30;16.33;;;9.13;;
75285;SDS011;63879;46.064;14.532;2022-12-29T18:06:00;17.70;;;8.50;;
75285;SDS011;63879;46.064;14.532;2022-12-29T18:08:25;13.48;;;8.23;;
75285;SDS011;63879;46.064;14.532;2022-12-29T18:10:54;19.02;;;8.93;;
75285;SDS011;63879;46.064;14.532;2022-12-29T18:13:22;16.85;;;8.35;;
75285;SDS011;63879;46.064;14.532;2022-12-29T18:15:49;13.52;;;7.47;;
75285;SDS011;63879;46.064;14.532;2022-12-29T18:18:17;14.73;;;8.15;;
75285;SDS011;63879;46.064;14.532;2022-12-29T18:20:44;16.02;;;8.50;;
75285;SDS011;63879;46.064;14.532;2022-12-29T18:23:26;16.52;;;9.70;;
75285;SDS011;63879;46.064;14.532;2022-12-29T18:28:25;19.00;;;9.82;;
75285;SDS011;63879;46.064;14.532;2022-12-29T18:30:52;18.92;;;9.63;;
75285;SDS011;63879;46.064;14.532;2022-12-29T18:33:19;18.70;;;10.52;;
75285;SDS011;63879;46.064;14.532;2022-12-29T18:38:11;17.80;;;10.60;;
75285;SDS011;63879;46.064;14.532;2022-12-29T18:40:36;17.77;;;10.47;;
75285;SDS011;63879;46.064;14.532;2022-12-29T18:43:02;16.05;;;8.70;;
75285;SDS011;63879;46.064;14.532;2022-12-29T18:45:29;13.32;;;7.07;;
75285;SDS011;63879;46.064;14.532;2022-12-29T18:47:56;11.18;;;6.85;;
75285;SDS011;63879;46.064;14.532;2022-12-29T18:50:21;9.03;;;5.27;;
75285;SDS011;63879;46.064;14.532;2022-12-29T18:52:47;11.77;;;5.73;;
75285;SDS011;63879;46.064;14.532;2022-12-29T18:55:17;15.38;;;6.25;;
75285;SDS011;63879;46.064;14.532;2022-12-29T18:57:44;10.30;;;5.82;;
75285;SDS011;63879;46.064;14.532;2022-12-29T19:00:09;12.90;;;6.70;;
75285;SDS011;63879;46.064;14.532;2022-12-29T19:02:36;12.85;;;6.78;;
75285;SDS011;63879;46.064;14.532;2022-12-29T19:05:02;14.90;;;7.28;;
75285;SDS011;63879;46.064;14.532;2022-12-29T19:07:28;13.55;;;7.20;;
75285;SDS011;63879;46.064;14.532;2022-12-29T19:09:53;10.15;;;6.15;;
75285;SDS011;63879;46.064;14.532;2022-12-29T19:12:19;12.18;;;5.70;;
75285;SDS011;63879;46.064;14.532;2022-12-29T19:14:45;12.00;;;6.03;;
75285;SDS011;63879;46.064;14.532;2022-12-29T19:17:10;10.35;;;6.82;;
75285;SDS011;63879;46.064;14.532;2022-12-29T19:19:37;9.13;;;4.60;;
75285;SDS011;63879;46.064;14.532;2022-12-29T19:22:02;9.20;;;5.78;;
75285;SDS011;63879;46.064;14.532;2022-12-29T19:24:27;10.95;;;5.07;;
75285;SDS011;63879;46.064;14.532;2022-12-29T19:26:53;9.40;;;5.03;;
75285;SDS011;63879;46.064;14.532;2022-12-29T19:29:18;7.90;;;4.07;;
75285;SDS011;63879;46.064;14.532;2022-12-29T19:31:43;8.95;;;4.68;;
75285;SDS011;63879;46.064;14.532;2022-12-29T19:34:11;9.68;;;4.55;;
75285;SDS011;63879;46.064;14.532;2022-12-29T19:36:38;12.07;;;5.38;;
75285;SDS011;63879;46.064;14.532;2022-12-29T19:39:03;10.13;;;4.95;;
75285;SDS011;63879;46.064;14.532;2022-12-29T19:41:29;10.10;;;5.35;;
75285;SDS011;63879;46.064;14.532;2022-12-29T19:44:00;10.45;;;5.95;;
75285;SDS011;63879;46.064;14.532;2022-12-29T19:46:26;10.18;;;5.65;;
75285;SDS011;63879;46.064;14.532;2022-12-29T19:48:51;10.63;;;5.55;;
75285;SDS011;63879;46.064;14.532;2022-12-29T19:51:18;9.25;;;5.75;;
75285;SDS011;63879;46.064;14.532;2022-12-29T19:53:44;10.52;;;5.38;;
75285;SDS011;63879;46.064;14.532;2022-12-29T19:56:10;8.05;;;4.65;;
75285;SDS011;63879;46.064;14.532;2022-12-29T19:58:37;7.70;;;4.50;;
75285;SDS011;63879;46.064;14.532;2022-12-29T20:01:06;8.52;;;4.53;;
75285;SDS011;63879;46.064;14.532;2022-12-29T20:03:32;10.10;;;4.30;;
75285;SDS011;63879;46.064;14.532;2022-12-29T20:05:58;12.23;;;5.50;;
75285;SDS011;63879;46.064;14.532;2022-12-29T20:08:23;10.40;;;5.57;;
75285;SDS011;63879;46.064;14.532;2022-12-29T20:10:56;8.60;;;4.07;;
75285;SDS011;63879;46.064;14.532;2022-12-29T20:13:25;10.48;;;4.32;;
75285;SDS011;63879;46.064;14.532;2022-12-29T20:15:55;8.82;;;4.03;;
75285;SDS011;63879;46.064;14.532;2022-12-29T20:18:21;10.55;;;4.63;;
75285;SDS011;63879;46.064;14.532;2022-12-29T20:20:47;12.90;;;5.15;;
75285;SDS011;63879;46.064;14.532;2022-12-29T20:23:12;7.73;;;4.40;;
75285;SDS011;63879;46.064;14.532;2022-12-29T20:25:37;7.17;;;3.93;;
75285;SDS011;63879;46.064;14.532;2022-12-29T20:28:03;7.25;;;4.45;;
75285;SDS011;63879;46.064;14.532;2022-12-29T20:30:28;9.75;;;4.53;;
75285;SDS011;63879;46.064;14.532;2022-12-29T20:32:54;8.05;;;3.97;;
75285;SDS011;63879;46.064;14.532;2022-12-29T20:35:19;7.85;;;4.35;;
75285;SDS011;63879;46.064;14.532;2022-12-29T20:37:44;7.13;;;4.07;;
75285;SDS011;63879;46.064;14.532;2022-12-29T20:40:10;7.90;;;4.72;;
75285;SDS011;63879;46.064;14.532;2022-12-29T20:42:35;9.32;;;4.60;;
75285;SDS011;63879;46.064;14.532;2022-12-29T20:45:00;9.87;;;4.73;;
75285;SDS011;63879;46.064;14.532;2022-12-29T20:47:26;8.33;;;5.30;;
75285;SDS011;63879;46.064;14.532;2022-12-29T20:49:51;8.30;;;4.65;;
75285;SDS011;63879;46.064;14.532;2022-12-29T20:52:17;9.32;;;6.43;;
75285;SDS011;63879;46.064;14.532;2022-12-29T20:54:43;9.43;;;5.53;;
75285;SDS011;63879;46.064;14.532;2022-12-29T20:57:09;12.77;;;6.32;;
75285;SDS011;63879;46.064;14.532;2022-12-29T20:59:34;9.98;;;6.07;;
75285;SDS011;63879;46.064;14.532;2022-12-29T21:02:00;10.70;;;5.85;;
75285;SDS011;63879;46.064;14.532;2022-12-29T21:04:25;11.47;;;6.57;;
75285;SDS011;63879;46.064;14.532;2022-12-29T21:06:51;11.27;;;5.50;;
75285;SDS011;63879;46.064;14.532;2022-12-29T21:09:16;13.30;;;6.97;;
75285;SDS011;63879;46.064;14.532;2022-12-29T21:11:41;14.20;;;6.73;;
75285;SDS011;63879;46.064;14.532;2022-12-29T21:14:07;13.40;;;6.37;;
75285;SDS011;63879;46.064;14.532;2022-12-29T21:16:33;12.02;;;7.15;;
75285;SDS011;63879;46.064;14.532;2022-12-29T21:18:58;11.90;;;6.43;;
75285;SDS011;63879;46.064;14.532;2022-12-29T21:21:24;12.30;;;6.30;;
75285;SDS011;63879;46.064;14.532;2022-12-29T21:23:50;18.15;;;9.60;;
75285;SDS011;63879;46.064;14.532;2022-12-29T21:26:17;16.88;;;10.88;;
75285;SDS011;63879;46.064;14.532;2022-12-29T21:28:44;17.23;;;9.23;;
75285;SDS011;63879;46.064;14.532;2022-12-29T21:31:11;15.15;;;8.60;;
75285;SDS011;63879;46.064;14.532;2022-12-29T21:33:36;15.65;;;9.27;;
75285;SDS011;63879;46.064;14.532;2022-12-29T21:36:03;14.90;;;8.02;;
75285;SDS011;63879;46.064;14.532;2022-12-29T21:38:29;16.25;;;10.05;;
75285;SDS011;63879;46.064;14.532;2022-12-29T21:40:55;16.73;;;10.20;;
75285;SDS011;63879;46.064;14.532;2022-12-29T21:43:23;15.65;;;9.55;;
75285;SDS011;63879;46.064;14.532;2022-12-29T21:45:49;17.67;;;10.73;;
75285;SDS011;63879;46.064;14.532;2022-12-29T21:48:14;18.92;;;9.98;;
75285;SDS011;63879;46.064;14.532;2022-12-29T21:50:48;15.40;;;10.10;;
75285;SDS011;63879;46.064;14.532;2022-12-29T21:53:35;19.85;;;11.25;;
75285;SDS011;63879;46.064;14.532;2022-12-29T21:58:47;17.23;;;9.90;;
